Time;durP1;ratioP1;P1;durP2;ratioP2;P2;SDS_P1;SDS_P2;PMS_P1;PMS_P2;Temp;Humidity;BMP_temperature;BMP_pressure;BME280_temperature;BME280_humidity;BME280_pressure;Samples;Min_cycle;Max_cycle;Signal;HPM_P1;HPM_P2
2022/09/29 00:01:29;;;;;;;69.30;49.72;;;17.40;67.10;;;;;;4967743;28;96192;-51
2022/09/29 00:03:56;;;;;;;65.32;49.58;;;17.50;67.00;;;;;;4965309;28;96081;-50
2022/09/29 00:06:21;;;;;;;66.32;50.10;;;17.40;67.00;;;;;;4963762;28;95870;-52
2022/09/29 00:08:47;;;;;;;66.07;50.08;;;17.40;67.00;;;;;;4958590;28;94922;-51
2022/09/29 00:11:15;;;;;;;65.38;49.45;;;17.40;66.90;;;;;;4973323;28;95950;-51
2022/09/29 00:13:42;;;;;;;65.28;49.25;;;17.40;66.90;;;;;;4965283;28;94937;-49
2022/09/29 00:16:08;;;;;;;65.45;49.58;;;17.40;67.00;;;;;;4960758;28;96418;-52
2022/09/29 00:18:35;;;;;;;65.88;50.00;;;17.40;67.00;;;;;;4960979;28;102051;-51
2022/09/29 00:21:12;;;;;;;65.03;49.13;;;17.40;66.90;;;;;;4958963;28;96296;-51
2022/09/29 00:23:38;;;;;;;65.38;49.60;;;17.40;66.80;;;;;;4963293;28;100526;-51
2022/09/29 00:26:08;;;;;;;65.07;49.45;;;17.40;67.10;;;;;;4963018;28;95806;-50
2022/09/29 00:28:36;;;;;;;65.65;50.03;;;17.40;67.10;;;;;;4964728;28;96678;-49
2022/09/29 00:31:03;;;;;;;65.63;49.60;;;17.40;67.10;;;;;;4968070;28;100220;-47
2022/09/29 00:33:30;;;;;;;66.38;49.58;;;17.40;67.00;;;;;;4966205;28;97852;-52
2022/09/29 00:36:17;;;;;;;65.35;49.70;;;17.40;66.90;;;;;;4965483;28;95734;-47
2022/09/29 00:38:46;;;;;;;65.43;49.35;;;17.40;67.00;;;;;;4960792;28;98944;-52
2022/09/29 00:41:17;;;;;;;66.05;49.55;;;17.30;66.90;;;;;;4959216;28;95777;-48
2022/09/29 00:43:48;;;;;;;65.28;50.03;;;17.40;66.90;;;;;;4979187;28;95120;-51
2022/09/29 00:46:18;;;;;;;67.78;49.92;;;17.30;66.80;;;;;;4960258;28;94676;-51
2022/09/29 00:48:45;;;;;;;65.28;49.72;;;17.40;66.80;;;;;;4962218;28;97063;-50
2022/09/29 00:51:12;;;;;;;65.50;49.70;;;17.40;66.70;;;;;;4959774;28;97002;-49
2022/09/29 00:53:39;;;;;;;65.88;49.88;;;17.40;66.80;;;;;;4964119;28;97753;-51
2022/09/29 00:56:09;;;;;;;66.68;50.22;;;17.30;66.70;;;;;;4963509;28;96158;-48
2022/09/29 00:58:41;;;;;;;65.70;49.72;;;17.30;66.80;;;;;;4966848;28;94785;-52
2022/09/29 01:01:07;;;;;;;65.47;49.55;;;17.30;66.90;;;;;;4962226;28;95084;-49
2022/09/29 01:03:39;;;;;;;65.28;49.55;;;17.30;66.90;;;;;;4964652;28;95866;-51
2022/09/29 01:06:11;;;;;;;65.28;49.60;;;17.30;66.80;;;;;;4958086;28;97455;-48
2022/09/29 01:08:42;;;;;;;66.65;49.65;;;17.40;66.60;;;;;;4960724;28;97134;-50
2022/09/29 01:11:11;;;;;;;65.00;49.53;;;17.30;66.60;;;;;;4970693;28;96924;-47
2022/09/29 01:13:38;;;;;;;65.00;49.47;;;17.30;66.50;;;;;;4972571;28;95089;-49
2022/09/29 01:16:04;;;;;;;64.85;49.30;;;17.30;66.70;;;;;;4970893;28;96367;-50
2022/09/29 01:18:31;;;;;;;66.75;49.55;;;17.30;66.60;;;;;;4957333;28;96831;-50
2022/09/29 01:21:18;;;;;;;64.72;49.30;;;17.30;66.60;;;;;;4960296;28;100385;-48
2022/09/29 01:24:21;;;;;;;64.72;49.50;;;17.30;66.80;;;;;;4966087;28;95106;-50
2022/09/29 01:27:37;;;;;;;65.60;49.55;;;17.30;66.60;;;;;;4961465;28;95628;-51
2022/09/29 01:30:10;;;;;;;65.20;49.50;;;17.30;66.50;;;;;;4955452;28;96067;-54
2022/09/29 01:33:00;;;;;;;64.05;49.10;;;17.20;66.60;;;;;;4962597;28;96063;-48
2022/09/29 01:35:35;;;;;;;65.63;49.75;;;17.30;66.70;;;;;;4962986;28;97154;-49
2022/09/29 01:38:42;;;;;;;66.13;49.60;;;17.20;66.90;;;;;;4958163;28;95253;-47
2022/09/29 01:41:22;;;;;;;64.40;49.17;;;17.20;66.70;;;;;;4971780;28;96130;-49
2022/09/29 01:44:03;;;;;;;65.57;49.72;;;17.20;67.50;;;;;;4961907;28;95452;-50
2022/09/29 01:46:46;;;;;;;65.10;49.20;;;17.20;66.70;;;;;;4963019;28;94845;-48
2022/09/29 01:49:13;;;;;;;64.38;49.08;;;17.20;66.60;;;;;;4959310;28;96232;-50
2022/09/29 01:51:48;;;;;;;65.80;49.83;;;17.20;66.60;;;;;;4966030;28;94429;-51
2022/09/29 01:54:49;;;;;;;64.90;49.47;;;17.20;66.70;;;;;;4965204;28;95151;-55
2022/09/29 01:57:45;;;;;;;65.53;49.88;;;17.20;66.80;;;;;;4956538;28;98237;-51
2022/09/29 02:00:16;;;;;;;66.30;49.47;;;17.20;66.70;;;;;;4962584;28;96009;-48
2022/09/29 02:02:48;;;;;;;65.38;49.08;;;17.20;66.50;;;;;;4964515;28;95434;-50
2022/09/29 02:05:26;;;;;;;65.03;49.47;;;17.20;66.60;;;;;;4970456;28;95267;-50
2022/09/29 02:07:55;;;;;;;64.65;49.60;;;17.30;66.50;;;;;;4968445;28;95164;-49
2022/09/29 02:10:29;;;;;;;64.55;48.90;;;17.30;66.50;;;;;;4959773;28;96905;-48
2022/09/29 02:12:57;;;;;;;64.68;49.47;;;17.20;66.50;;;;;;4963278;28;95105;-53
2022/09/29 02:15:27;;;;;;;65.60;49.53;;;17.20;66.50;;;;;;4967167;28;95290;-48
2022/09/29 02:17:58;;;;;;;65.18;49.50;;;17.20;66.50;;;;;;4961254;28;94572;-49
2022/09/29 02:20:25;;;;;;;67.22;49.83;;;17.20;66.30;;;;;;4959539;28;96299;-51
2022/09/29 02:22:50;;;;;;;64.55;49.20;;;17.30;66.30;;;;;;4965962;28;95158;-50
2022/09/29 02:25:18;;;;;;;65.75;49.58;;;17.20;66.20;;;;;;4970311;28;96142;-48
2022/09/29 02:27:46;;;;;;;65.38;49.72;;;17.20;66.40;;;;;;4969005;28;95737;-51
2022/09/29 02:30:12;;;;;;;65.22;49.53;;;17.20;66.40;;;;;;4959826;28;96170;-47
2022/09/29 02:32:38;;;;;;;64.93;49.50;;;17.20;66.30;;;;;;4956217;28;96010;-49
2022/09/29 02:35:07;;;;;;;64.35;49.10;;;17.20;66.30;;;;;;4967173;28;95490;-54
2022/09/29 02:37:53;;;;;;;64.45;49.05;;;17.30;66.20;;;;;;4967102;28;95329;-51
2022/09/29 02:40:36;;;;;;;64.97;49.22;;;17.30;66.30;;;;;;4959960;28;95094;-49
2022/09/29 02:43:11;;;;;;;64.65;49.25;;;17.30;66.20;;;;;;4956570;28;95543;-51
2022/09/29 02:45:48;;;;;;;65.68;49.53;;;17.30;66.20;;;;;;4959432;28;95705;-50
2022/09/29 02:48:35;;;;;;;64.47;49.15;;;17.20;66.20;;;;;;4956638;28;95820;-51
2022/09/29 02:51:27;;;;;;;64.90;49.15;;;17.30;66.20;;;;;;4954473;28;96881;-48
2022/09/29 02:53:53;;;;;;;;;;;17.30;66.00;;;;;;4959682;28;96475;-51
2022/09/29 02:56:38;;;;;;;64.25;49.17;;;17.30;66.10;;;;;;4966128;28;95403;-51
2022/09/29 02:59:13;;;;;;;64.13;48.95;;;17.30;66.00;;;;;;4971679;28;100154;-54
2022/09/29 03:01:50;;;;;;;65.00;49.25;;;17.30;66.00;;;;;;4968744;28;96426;-49
2022/09/29 03:04:17;;;;;;;64.20;49.15;;;17.20;66.00;;;;;;4964044;28;95323;-48
2022/09/29 03:06:45;;;;;;;64.40;49.33;;;17.20;66.20;;;;;;4954919;28;105606;-51
2022/09/29 03:09:11;;;;;;;65.38;49.38;;;17.30;66.00;;;;;;4955190;28;98287;-51
2022/09/29 03:11:37;;;;;;;64.68;49.22;;;17.30;66.00;;;;;;4967185;28;96893;-48
2022/09/29 03:14:03;;;;;;;65.05;49.22;;;17.30;66.10;;;;;;4963868;28;96406;-52
2022/09/29 03:16:29;;;;;;;66.13;49.58;;;17.30;66.00;;;;;;4957453;28;96096;-51
2022/09/29 03:18:55;;;;;;;65.50;49.45;;;17.20;66.00;;;;;;4957775;28;95625;-48
2022/09/29 03:21:21;;;;;;;64.72;49.10;;;17.20;66.20;;;;;;4962189;28;97778;-50
2022/09/29 03:23:47;;;;;;;64.75;49.28;;;17.20;66.10;;;;;;4973506;28;95213;-50
2022/09/29 03:26:12;;;;;;;65.22;49.35;;;17.20;66.20;;;;;;4964366;28;95181;-54
2022/09/29 03:28:38;;;;;;;65.85;49.08;;;17.20;66.20;;;;;;4965482;28;95142;-49
2022/09/29 03:31:05;;;;;;;64.18;49.33;;;17.30;65.90;;;;;;4962951;28;101475;-51
2022/09/29 03:33:31;;;;;;;64.97;48.97;;;17.20;65.90;;;;;;4968337;28;95774;-48
2022/09/29 03:35:57;;;;;;;64.80;49.33;;;17.20;66.00;;;;;;4962535;28;96276;-46
2022/09/29 03:38:22;;;;;;;65.43;49.70;;;17.20;65.90;;;;;;4959748;28;95368;-49
2022/09/29 03:40:48;;;;;;;66.50;49.05;;;17.20;66.20;;;;;;4962501;28;97900;-49
2022/09/29 03:43:14;;;;;;;65.10;49.08;;;17.20;66.20;;;;;;4957347;28;95106;-52
2022/09/29 03:45:48;;;;;;;64.50;49.22;;;17.20;66.20;;;;;;4966029;28;95128;-52
2022/09/29 03:48:14;;;;;;;64.57;49.08;;;17.20;66.10;;;;;;4958545;28;96899;-52
2022/09/29 03:50:39;;;;;;;65.30;49.70;;;17.20;66.10;;;;;;4962086;28;95295;-49
2022/09/29 03:53:05;;;;;;;64.78;49.05;;;17.20;66.10;;;;;;4959475;28;95862;-52
2022/09/29 03:55:31;;;;;;;64.18;48.85;;;17.20;66.10;;;;;;4969145;28;94923;-51
2022/09/29 03:57:57;;;;;;;64.53;49.03;;;17.20;66.10;;;;;;4966267;28;94756;-49
2022/09/29 04:00:22;;;;;;;64.30;49.13;;;17.10;66.10;;;;;;4960429;28;95396;-52
2022/09/29 04:02:48;;;;;;;64.43;49.33;;;17.20;66.20;;;;;;4962198;28;95079;-50
2022/09/29 04:05:14;;;;;;;65.35;49.17;;;17.10;66.10;;;;;;4971069;28;96170;-50
2022/09/29 04:07:40;;;;;;;65.40;49.35;;;17.10;66.10;;;;;;4967556;28;94696;-51
2022/09/29 04:10:06;;;;;;;64.60;49.38;;;17.10;66.20;;;;;;4963293;28;95253;-53
2022/09/29 04:12:32;;;;;;;63.58;48.75;;;17.10;66.10;;;;;;4965265;28;98478;-53
2022/09/29 04:14:58;;;;;;;68.22;48.92;;;17.10;66.20;;;;;;4969749;28;95109;-53
2022/09/29 04:17:24;;;;;;;64.45;49.00;;;17.10;66.30;;;;;;4956367;28;96005;-51
2022/09/29 04:19:49;;;;;;;65.80;49.15;;;17.00;66.20;;;;;;4976736;28;95283;-52
2022/09/29 04:22:18;;;;;;;67.00;49.60;;;17.10;66.20;;;;;;4966419;28;94430;-51
2022/09/29 04:24:47;;;;;;;64.75;49.05;;;17.10;66.20;;;;;;4967281;28;94973;-48
2022/09/29 04:27:13;;;;;;;65.20;49.35;;;17.00;66.20;;;;;;4963008;28;98537;-51
2022/09/29 04:29:39;;;;;;;64.43;49.10;;;17.00;66.10;;;;;;4962823;28;96219;-48
2022/09/29 04:32:05;;;;;;;65.60;49.03;;;17.00;66.20;;;;;;4962554;28;96624;-50
2022/09/29 04:34:31;;;;;;;66.13;49.03;;;17.00;66.20;;;;;;4967791;28;94946;-49
2022/09/29 04:36:57;;;;;;;66.85;48.80;;;17.00;66.40;;;;;;4967707;28;95514;-53
2022/09/29 04:39:23;;;;;;;65.43;49.50;;;17.00;66.20;;;;;;4963948;28;97789;-50
2022/09/29 04:41:49;;;;;;;66.95;49.10;;;17.00;66.40;;;;;;4976811;28;95892;-52
2022/09/29 04:44:15;;;;;;;66.18;49.35;;;16.90;66.40;;;;;;4962192;28;95121;-49
2022/09/29 04:46:41;;;;;;;64.13;48.72;;;16.90;66.30;;;;;;4959541;28;95752;-51
2022/09/29 04:49:07;;;;;;;65.07;49.25;;;16.90;66.40;;;;;;4964324;28;97358;-54
2022/09/29 04:51:33;;;;;;;64.03;49.40;;;17.00;66.50;;;;;;4961906;28;95837;-49
2022/09/29 04:54:00;;;;;;;63.88;48.95;;;16.90;66.40;;;;;;4961948;28;96088;-52
2022/09/29 04:56:30;;;;;;;63.47;48.50;;;16.90;66.40;;;;;;4964849;28;98419;-47
2022/09/29 04:58:57;;;;;;;64.05;48.85;;;16.90;66.40;;;;;;4967174;28;96246;-51
2022/09/29 05:01:22;;;;;;;66.18;49.00;;;16.90;66.40;;;;;;4960620;28;96940;-53
2022/09/29 05:03:48;;;;;;;63.88;48.85;;;16.90;66.50;;;;;;4953714;28;95064;-48
2022/09/29 05:06:13;;;;;;;64.22;49.30;;;16.90;66.50;;;;;;4963256;28;95691;-50
2022/09/29 05:08:39;;;;;;;63.88;49.15;;;16.90;66.40;;;;;;4968602;28;95184;-48
2022/09/29 05:11:06;;;;;;;63.70;48.58;;;16.90;66.30;;;;;;4963247;28;95056;-50
2022/09/29 05:13:32;;;;;;;64.03;49.00;;;16.90;66.50;;;;;;4970350;28;99868;-51
2022/09/29 05:15:57;;;;;;;65.18;49.25;;;16.90;66.30;;;;;;4966276;28;95051;-49
2022/09/29 05:18:24;;;;;;;64.03;49.08;;;16.90;66.50;;;;;;4958342;28;100733;-47
2022/09/29 05:20:50;;;;;;;63.80;48.75;;;16.80;66.50;;;;;;4962046;28;96158;-51
2022/09/29 05:23:15;;;;;;;64.35;49.47;;;16.90;66.50;;;;;;4964334;28;94961;-51
2022/09/29 05:25:42;;;;;;;64.53;49.10;;;16.90;66.30;;;;;;4972668;28;95412;-52
2022/09/29 05:28:09;;;;;;;64.50;49.28;;;16.90;66.30;;;;;;4955453;28;96062;-53
2022/09/29 05:30:36;;;;;;;68.18;49.30;;;16.90;66.30;;;;;;4956030;28;96957;-51
2022/09/29 05:33:02;;;;;;;67.05;50.13;;;16.80;66.40;;;;;;4959085;28;95048;-50
2022/09/29 05:35:27;;;;;;;65.28;49.15;;;16.80;66.50;;;;;;4964371;28;99300;-51
2022/09/29 05:37:53;;;;;;;66.80;49.00;;;16.80;66.30;;;;;;4955228;28;95531;-52
2022/09/29 05:40:22;;;;;;;63.60;49.00;;;16.80;66.70;;;;;;4957089;28;95599;-51
2022/09/29 05:42:48;;;;;;;64.43;49.60;;;16.80;66.30;;;;;;4966041;28;95876;-50
2022/09/29 05:45:14;;;;;;;65.32;49.33;;;16.80;66.40;;;;;;4964317;28;95663;-52
2022/09/29 05:47:43;;;;;;;63.22;48.85;;;16.80;66.30;;;;;;4968227;28;99285;-51
2022/09/29 05:50:10;;;;;;;64.97;49.13;;;16.80;66.50;;;;;;4961814;28;95552;-48
2022/09/29 05:52:37;;;;;;;63.72;48.92;;;16.80;66.50;;;;;;4965686;28;95144;-50
2022/09/29 05:55:04;;;;;;;64.00;49.03;;;16.80;66.50;;;;;;4961822;28;98876;-48
2022/09/29 05:57:30;;;;;;;64.13;48.83;;;16.80;66.40;;;;;;4961869;28;95901;-50
2022/09/29 05:59:56;;;;;;;66.13;49.22;;;16.90;66.50;;;;;;4958930;28;99005;-49
2022/09/29 06:02:21;;;;;;;64.93;49.30;;;16.80;66.40;;;;;;4963985;28;95355;-52
2022/09/29 06:04:48;;;;;;;65.90;49.42;;;16.80;66.30;;;;;;4958978;28;95617;-50
2022/09/29 06:07:13;;;;;;;64.50;49.15;;;16.80;66.40;;;;;;4960311;28;97484;-52
2022/09/29 06:09:39;;;;;;;64.55;49.10;;;16.80;66.30;;;;;;4965220;28;95515;-49
2022/09/29 06:12:05;;;;;;;63.75;49.15;;;16.80;66.50;;;;;;4966770;28;96508;-49
2022/09/29 06:14:31;;;;;;;63.92;49.25;;;16.80;66.30;;;;;;4953213;28;95558;-47
2022/09/29 06:16:57;;;;;;;63.63;48.75;;;16.80;66.30;;;;;;4953493;28;98423;-52
2022/09/29 06:19:22;;;;;;;63.85;49.00;;;16.80;66.50;;;;;;4970132;28;94953;-54
2022/09/29 06:21:48;;;;;;;64.65;49.17;;;16.90;66.50;;;;;;4973196;28;95477;-51
2022/09/29 06:24:14;;;;;;;65.53;49.22;;;16.90;66.40;;;;;;4959620;28;97084;-49
2022/09/29 06:26:39;;;;;;;64.13;49.20;;;16.90;66.50;;;;;;4963868;28;95318;-51
2022/09/29 06:29:05;;;;;;;64.75;48.90;;;16.90;66.40;;;;;;4967232;28;95389;-48
2022/09/29 06:31:31;;;;;;;66.32;49.25;;;17.00;66.50;;;;;;4953287;28;102601;-47
2022/09/29 06:33:59;;;;;;;65.82;49.38;;;17.30;65.80;;;;;;4962775;28;95411;-51
2022/09/29 06:39:18;;;;;;;65.93;49.22;;;17.40;65.10;;;;;;4959580;28;95810;-50
2022/09/29 06:41:50;;;;;;;67.03;49.38;;;17.30;65.30;;;;;;4967254;28;95293;-49
2022/09/29 06:44:16;;;;;;;66.88;49.45;;;17.30;65.60;;;;;;4959865;28;95067;-50
2022/09/29 06:46:42;;;;;;;67.50;49.42;;;17.50;65.30;;;;;;4948177;28;100514;-47
2022/09/29 06:49:10;;;;;;;66.68;49.65;;;17.60;64.70;;;;;;4960947;28;94145;-51
2022/09/29 06:51:36;;;;;;;67.07;49.70;;;17.60;64.50;;;;;;4965001;28;101704;-48
2022/09/29 06:54:01;;;;;;;69.80;49.60;;;17.50;64.20;;;;;;4951083;28;98873;-50
2022/09/29 06:56:28;;;;;;;69.13;49.67;;;17.40;64.60;;;;;;4959024;28;102587;-48
2022/09/29 06:58:54;;;;;;;65.28;49.72;;;17.50;65.10;;;;;;4957557;28;95843;-50
2022/09/29 07:01:19;;;;;;;66.72;49.25;;;17.40;65.00;;;;;;4947067;28;95051;-49
2022/09/29 07:03:45;;;;;;;67.97;49.50;;;17.40;65.10;;;;;;4953203;28;95843;-48
2022/09/29 07:06:11;;;;;;;69.13;50.40;;;17.40;64.90;;;;;;4961723;28;96919;-49
2022/09/29 07:08:38;;;;;;;65.90;49.70;;;17.40;64.60;;;;;;4965028;28;98430;-51
2022/09/29 07:11:08;;;;;;;67.75;49.55;;;17.40;65.00;;;;;;4956659;28;95113;-49
2022/09/29 07:13:34;;;;;;;66.50;49.75;;;17.40;64.90;;;;;;4954472;28;94537;-50
2022/09/29 07:16:05;;;;;;;65.90;49.83;;;17.50;64.80;;;;;;4961178;28;97961;-46
2022/09/29 07:18:33;;;;;;;66.57;50.05;;;17.50;64.70;;;;;;4960969;28;95825;-50
2022/09/29 07:20:59;;;;;;;66.80;49.67;;;17.50;64.70;;;;;;4962214;28;97089;-49
2022/09/29 07:23:26;;;;;;;67.03;49.53;;;17.50;64.60;;;;;;4957223;28;95915;-51
2022/09/29 07:25:51;;;;;;;66.65;49.83;;;17.50;64.50;;;;;;4952162;28;96156;-51
2022/09/29 07:28:18;;;;;;;67.18;50.20;;;17.50;64.60;;;;;;4952978;28;95661;-51
2022/09/29 07:30:43;;;;;;;68.15;50.38;;;17.50;64.20;;;;;;4943388;28;97056;-52
2022/09/29 07:33:09;;;;;;;66.88;50.40;;;17.50;64.30;;;;;;4963226;28;95697;-49
2022/09/29 07:35:35;;;;;;;66.53;49.90;;;17.40;64.30;;;;;;4953276;28;95963;-47
2022/09/29 07:38:00;;;;;;;68.53;50.22;;;17.50;64.60;;;;;;4959533;28;95902;-49
2022/09/29 07:40:26;;;;;;;70.65;49.85;;;17.60;65.60;;;;;;4957916;28;95172;-48
2022/09/29 07:42:53;;;;;;;66.93;49.75;;;17.70;64.60;;;;;;4961084;28;97193;-49
2022/09/29 07:45:19;;;;;;;68.20;49.80;;;17.70;64.30;;;;;;4962036;28;102436;-51
2022/09/29 07:47:44;;;;;;;68.93;50.08;;;17.70;64.20;;;;;;4932126;28;96087;-51
2022/09/29 07:50:11;;;;;;;69.15;49.92;;;17.70;64.20;;;;;;4948260;28;96295;-46
2022/09/29 07:52:37;;;;;;;67.78;49.90;;;17.70;64.00;;;;;;4951374;28;98739;-46
2022/09/29 07:55:03;;;;;;;68.65;49.60;;;17.80;63.90;;;;;;4949062;28;96671;-48
2022/09/29 07:57:30;;;;;;;69.15;49.95;;;17.80;63.90;;;;;;4951862;28;101043;-53
2022/09/29 07:59:57;;;;;;;69.95;50.15;;;17.90;64.10;;;;;;4958601;28;95364;-49
2022/09/29 08:02:23;;;;;;;66.93;50.00;;;18.00;64.10;;;;;;4964743;28;94665;-50
2022/09/29 08:04:49;;;;;;;68.88;50.13;;;18.20;64.10;;;;;;4964396;28;95339;-49
2022/09/29 08:07:15;;;;;;;68.47;50.20;;;18.20;64.00;;;;;;4963014;28;94828;-49
2022/09/29 08:09:40;;;;;;;71.97;49.95;;;18.20;64.10;;;;;;4966937;28;96607;-49
2022/09/29 08:12:07;;;;;;;69.00;50.13;;;18.30;64.40;;;;;;4967982;28;95236;-50
2022/09/29 08:14:33;;;;;;;70.82;50.35;;;18.40;64.50;;;;;;4970239;28;95334;-50
2022/09/29 08:16:58;;;;;;;69.82;50.38;;;18.40;64.50;;;;;;4962743;28;95115;-50
2022/09/29 08:19:25;;;;;;;79.18;50.90;;;18.50;64.70;;;;;;4955334;28;95371;-52
2022/09/29 08:21:52;;;;;;;70.05;50.75;;;18.50;64.70;;;;;;4968797;28;96346;-50
2022/09/29 08:24:17;;;;;;;71.70;50.30;;;18.40;64.70;;;;;;4961062;28;95161;-51
2022/09/29 08:26:43;;;;;;;73.97;50.30;;;18.40;64.50;;;;;;4954932;28;95627;-52
2022/09/29 08:29:10;;;;;;;69.32;49.92;;;18.40;64.50;;;;;;4964587;28;95253;-53
2022/09/29 08:31:36;;;;;;;75.35;50.22;;;18.40;64.30;;;;;;4958110;28;95358;-50
2022/09/29 08:34:02;;;;;;;69.05;50.33;;;18.40;64.40;;;;;;4953845;28;96127;-49
2022/09/29 08:36:28;;;;;;;71.13;50.97;;;18.40;64.40;;;;;;4962791;28;95674;-45
2022/09/29 08:38:55;;;;;;;74.20;50.05;;;18.50;64.40;;;;;;4965140;28;97829;-49
2022/09/29 08:41:34;;;;;;;72.65;50.80;;;18.60;64.70;;;;;;4958073;28;96801;-46
2022/09/29 08:44:34;;;;;;;70.70;50.63;;;18.60;64.00;;;;;;4959228;28;95270;-48
2022/09/29 08:47:02;;;;;;;69.03;50.80;;;18.50;63.90;;;;;;4953887;28;95332;-50
2022/09/29 08:49:34;;;;;;;70.10;50.80;;;18.40;64.10;;;;;;4955002;28;96197;-51
2022/09/29 08:52:18;;;;;;;69.88;50.65;;;18.40;64.20;;;;;;4953465;28;94142;-48
2022/09/29 08:54:46;;;;;;;69.40;50.53;;;18.30;64.20;;;;;;4959441;27;96414;-47
2022/09/29 08:57:20;;;;;;;69.68;50.72;;;18.30;64.60;;;;;;4960848;28;95976;-48
2022/09/29 08:59:51;;;;;;;69.88;50.42;;;18.30;64.40;;;;;;4953567;28;98002;-51
2022/09/29 09:02:46;;;;;;;69.38;50.35;;;18.40;64.50;;;;;;4955225;28;102370;-51
2022/09/29 09:05:43;;;;;;;70.03;50.17;;;18.40;64.10;;;;;;4954733;28;95246;-49
2022/09/29 09:08:46;;;;;;;71.38;50.35;;;18.40;64.10;;;;;;4967945;28;96682;-48
2022/09/29 09:11:22;;;;;;;69.80;50.15;;;18.40;63.80;;;;;;4964065;28;95276;-49
2022/09/29 09:14:15;;;;;;;72.63;50.22;;;18.40;64.00;;;;;;4969678;28;95316;-52
2022/09/29 09:17:00;;;;;;;68.93;50.08;;;18.40;63.90;;;;;;4962758;28;96700;-51
2022/09/29 09:19:31;;;;;;;68.95;50.30;;;18.40;64.00;;;;;;4965901;28;95321;-49
2022/09/29 09:22:09;;;;;;;71.43;49.95;;;18.50;64.10;;;;;;4953257;28;95075;-49
2022/09/29 09:24:58;;;;;;;71.03;50.50;;;18.60;63.90;;;;;;4953194;28;95954;-52
2022/09/29 09:27:33;;;;;;;69.53;50.15;;;18.70;63.80;;;;;;4955249;28;99233;-50
2022/09/29 09:30:05;;;;;;;70.15;50.25;;;18.80;63.90;;;;;;4958532;28;97364;-50
2022/09/29 09:32:38;;;;;;;72.35;50.58;;;18.90;64.00;;;;;;4958416;28;94800;-52
2022/09/29 09:35:26;;;;;;;70.13;50.28;;;18.90;63.80;;;;;;4960245;28;96779;-46
2022/09/29 09:37:56;;;;;;;71.78;49.83;;;18.90;63.40;;;;;;4963162;28;95345;-51
2022/09/29 09:40:39;;;;;;;73.43;50.53;;;18.90;63.90;;;;;;4962596;28;95465;-49
2022/09/29 09:43:17;;;;;;;73.60;50.95;;;19.00;63.70;;;;;;4955631;28;96810;-52
2022/09/29 09:45:48;;;;;;;70.07;50.28;;;19.00;63.20;;;;;;4967265;28;94010;-48
2022/09/29 09:48:18;;;;;;;;;;;19.10;63.30;;;;;;4962893;28;95920;-48
2022/09/29 09:50:45;;;;;;;70.20;50.13;;;19.10;63.30;;;;;;4969171;28;95429;-46
2022/09/29 09:53:42;;;;;;;75.28;50.75;;;19.10;63.10;;;;;;4960125;28;97720;-51
2022/09/29 09:56:11;;;;;;;72.18;50.75;;;19.10;63.60;;;;;;4968544;28;95551;-49
2022/09/29 09:58:52;;;;;;;71.05;50.22;;;19.10;63.40;;;;;;4960808;28;95436;-48
2022/09/29 10:01:18;;;;;;;70.07;50.75;;;19.20;63.40;;;;;;4961235;28;95533;-46
2022/09/29 10:03:44;;;;;;;71.15;50.65;;;19.20;63.20;;;;;;4964565;28;95408;-48
2022/09/29 10:06:10;;;;;;;76.72;50.65;;;19.20;63.00;;;;;;4970660;28;95411;-49
2022/09/29 10:08:40;;;;;;;74.07;50.75;;;19.20;62.90;;;;;;4966326;28;96532;-52
2022/09/29 10:11:23;;;;;;;72.90;50.80;;;19.30;62.70;;;;;;4959011;28;96379;-46
2022/09/29 10:14:10;;;;;;;70.30;50.78;;;19.30;62.30;;;;;;4961421;28;95023;-53
2022/09/29 10:16:50;;;;;;;70.32;50.97;;;19.40;62.40;;;;;;4952579;28;94925;-48
2022/09/29 10:19:42;;;;;;;71.60;50.70;;;19.50;62.20;;;;;;4959579;28;96216;-47
2022/09/29 10:22:14;;;;;;;69.50;50.50;;;19.50;62.30;;;;;;4959597;28;96481;-47
2022/09/29 10:24:39;;;;;;;70.95;50.75;;;19.50;62.10;;;;;;4957083;28;95951;-53
2022/09/29 10:27:06;;;;;;;70.75;50.65;;;19.50;62.00;;;;;;4960054;28;94858;-48
2022/09/29 10:29:43;;;;;;;73.78;50.88;;;19.50;62.00;;;;;;4955943;28;95419;-45
2022/09/29 10:32:13;;;;;;;71.53;50.55;;;19.50;62.10;;;;;;4954986;28;95919;-52
2022/09/29 10:34:46;;;;;;;73.20;51.00;;;19.50;62.40;;;;;;4957577;28;95637;-54
2022/09/29 10:37:23;;;;;;;68.32;50.25;;;19.50;62.50;;;;;;4962625;28;94907;-49
2022/09/29 10:39:49;;;;;;;68.57;50.20;;;19.50;62.20;;;;;;4959027;28;96156;-47
2022/09/29 10:42:22;;;;;;;71.40;50.58;;;19.50;62.20;;;;;;4958525;28;96359;-48
2022/09/29 10:44:59;;;;;;;69.20;50.17;;;19.50;62.20;;;;;;4957526;28;95972;-48
2022/09/29 10:47:25;;;;;;;68.78;50.03;;;19.40;62.20;;;;;;4960978;28;96543;-52
2022/09/29 10:50:18;;;;;;;70.90;50.72;;;19.40;62.20;;;;;;4955331;28;95966;-49
2022/09/29 10:52:52;;;;;;;69.10;50.25;;;19.40;62.30;;;;;;4969932;28;95312;-47
2022/09/29 10:55:33;;;;;;;69.93;50.25;;;19.40;62.10;;;;;;4953745;28;96465;-48
2022/09/29 10:58:19;;;;;;;71.15;49.95;;;19.40;61.80;;;;;;4967468;28;95623;-47
2022/09/29 11:00:46;;;;;;;70.00;50.10;;;19.40;62.00;;;;;;4957158;28;95425;-51
2022/09/29 11:03:27;;;;;;;71.63;50.38;;;19.30;62.00;;;;;;4963075;28;100840;-48
2022/09/29 11:06:05;;;;;;;69.07;50.25;;;19.40;62.40;;;;;;4956908;28;95073;-46
2022/09/29 11:08:31;;;;;;;71.55;50.47;;;19.40;62.20;;;;;;4958868;28;95117;-50
2022/09/29 11:11:06;;;;;;;69.95;50.13;;;19.40;62.30;;;;;;4966080;28;96960;-50
2022/09/29 11:13:39;;;;;;;70.22;50.38;;;19.40;62.20;;;;;;4960964;28;100352;-50
2022/09/29 11:16:25;;;;;;;70.78;50.67;;;19.40;62.50;;;;;;4959661;28;95360;-47
2022/09/29 11:18:56;;;;;;;70.05;50.50;;;19.50;62.70;;;;;;4955870;28;95785;-48
2022/09/29 11:21:33;;;;;;;71.07;50.20;;;19.40;62.70;;;;;;4957984;28;98317;-47
2022/09/29 11:24:11;;;;;;;69.95;50.83;;;19.40;62.80;;;;;;4960337;28;95560;-50
2022/09/29 11:26:53;;;;;;;72.47;50.35;;;19.50;62.80;;;;;;4966640;28;98489;-47
2022/09/29 11:29:52;;;;;;;72.32;50.42;;;19.50;62.60;;;;;;4965060;28;94510;-51
2022/09/29 11:32:30;;;;;;;70.05;50.47;;;19.50;63.10;;;;;;4957559;28;99953;-47
2022/09/29 11:34:55;;;;;;;71.80;50.33;;;19.50;63.10;;;;;;4957934;28;95828;-51
2022/09/29 11:37:45;;;;;;;70.55;50.55;;;19.50;62.90;;;;;;4960981;28;98682;-47
2022/09/29 11:40:39;;;;;;;70.20;50.15;;;19.50;63.10;;;;;;4964805;28;97942;-50
2022/09/29 11:43:08;;;;;;;72.55;50.42;;;19.50;63.40;;;;;;4964154;28;95393;-47
2022/09/29 11:45:45;;;;;;;70.10;50.08;;;19.50;63.20;;;;;;4960480;28;96239;-53
2022/09/29 11:49:07;;;;;;;69.40;50.15;;;19.50;63.00;;;;;;4968197;28;95554;-48
2022/09/29 11:51:59;;;;;;;;;;;19.50;63.30;;;;;;4928655;28;94760;-50
2022/09/29 11:55:02;;;;;;;71.47;50.25;;;19.50;63.30;;;;;;4969180;28;95248;-48
2022/09/29 11:57:40;;;;;;;68.75;50.25;;;19.50;63.30;;;;;;4970966;28;94231;-49
2022/09/29 12:00:12;;;;;;;71.00;50.28;;;19.50;62.90;;;;;;4963358;28;97479;-51
2022/09/29 12:03:07;;;;;;;71.30;50.30;;;19.50;63.00;;;;;;4968456;28;95088;-47
2022/09/29 12:05:48;;;;;;;68.13;50.05;;;19.50;62.60;;;;;;4966821;28;97071;-48
2022/09/29 12:09:05;;;;;;;70.50;50.25;;;19.50;62.70;;;;;;4961015;28;97005;-49
2022/09/29 12:11:56;;;;;;;71.60;50.38;;;19.50;62.30;;;;;;4962942;28;95269;-48
2022/09/29 12:14:35;;;;;;;67.88;49.90;;;19.50;62.20;;;;;;4956913;28;96710;-54
2022/09/29 12:17:07;;;;;;;71.82;50.28;;;19.50;62.00;;;;;;4965816;28;96721;-48
2022/09/29 12:19:39;;;;;;;68.78;50.13;;;19.50;62.20;;;;;;4965914;28;95043;-47
2022/09/29 12:22:10;;;;;;;68.45;50.05;;;19.60;61.90;;;;;;4964827;28;95305;-49
2022/09/29 12:24:37;;;;;;;67.80;50.10;;;19.60;61.70;;;;;;4964458;28;95548;-49
2022/09/29 12:27:10;;;;;;;69.40;49.75;;;19.50;61.80;;;;;;4960475;28;95635;-48
2022/09/29 12:29:47;;;;;;;70.15;50.45;;;19.60;62.00;;;;;;4948050;28;96709;-50
2022/09/29 12:32:57;;;;;;;71.82;50.05;;;19.60;61.90;;;;;;4956626;28;98404;-51
2022/09/29 12:35:37;;;;;;;70.55;50.10;;;19.80;61.60;;;;;;4957385;28;96194;-49
2022/09/29 12:38:35;;;;;;;68.15;50.15;;;19.80;61.30;;;;;;4959524;28;97633;-48
2022/09/29 12:41:20;;;;;;;69.22;50.15;;;19.70;60.80;;;;;;4967295;28;96051;-48
2022/09/29 12:44:15;;;;;;;70.28;50.15;;;19.70;60.80;;;;;;4958731;28;95229;-49
2022/09/29 12:47:08;;;;;;;69.18;50.25;;;19.70;61.50;;;;;;4965973;28;96148;-48
2022/09/29 12:49:52;;;;;;;70.32;50.35;;;19.90;62.00;;;;;;4961692;28;98541;-48
2022/09/29 12:52:28;;;;;;;71.90;50.25;;;19.90;61.80;;;;;;4967720;28;94101;-48
2022/09/29 12:54:59;;;;;;;72.65;50.10;;;19.90;61.80;;;;;;4971544;28;94909;-50
2022/09/29 12:57:33;;;;;;;70.35;49.88;;;19.90;61.60;;;;;;4962967;28;95736;-49